sensor_id;sensor_type;location;lat;lon;timestamp;P1;durP1;ratioP1;P2;durP2;ratioP2
51525;SDS011;37611;51.794;21.590;2022-11-11T00:01:03;35.10;;;21.60;;
51525;SDS011;37611;51.794;21.590;2022-11-11T00:05:05;26.40;;;22.70;;
51525;SDS011;37611;51.794;21.590;2022-11-11T00:09:08;28.20;;;22.80;;
51525;SDS011;37611;51.794;21.590;2022-11-11T00:13:10;30.60;;;23.00;;
51525;SDS011;37611;51.794;21.590;2022-11-11T00:17:12;29.40;;;24.00;;
51525;SDS011;37611;51.794;21.590;2022-11-11T00:21:33;27.20;;;23.30;;
51525;SDS011;37611;51.794;21.590;2022-11-11T00:25:53;29.80;;;23.70;;
51525;SDS011;37611;51.794;21.590;2022-11-11T00:29:55;24.70;;;22.00;;
51525;SDS011;37611;51.794;21.590;2022-11-11T00:33:56;28.10;;;23.90;;
51525;SDS011;37611;51.794;21.590;2022-11-11T00:38:05;26.00;;;22.50;;
51525;SDS011;37611;51.794;21.590;2022-11-11T00:42:11;25.40;;;22.30;;
51525;SDS011;37611;51.794;21.590;2022-11-11T00:46:14;24.60;;;19.20;;
51525;SDS011;37611;51.794;21.590;2022-11-11T00:50:55;25.10;;;22.50;;
51525;SDS011;37611;51.794;21.590;2022-11-11T00:55:00;26.00;;;22.10;;
51525;SDS011;37611;51.794;21.590;2022-11-11T00:59:02;25.80;;;21.00;;
51525;SDS011;37611;51.794;21.590;2022-11-11T01:03:05;21.90;;;19.70;;
51525;SDS011;37611;51.794;21.590;2022-11-11T01:07:07;25.10;;;22.30;;
51525;SDS011;37611;51.794;21.590;2022-11-11T01:11:16;25.40;;;21.90;;
51525;SDS011;37611;51.794;21.590;2022-11-11T01:15:19;26.10;;;23.00;;
51525;SDS011;37611;51.794;21.590;2022-11-11T01:19:21;31.70;;;24.80;;
51525;SDS011;37611;51.794;21.590;2022-11-11T01:23:23;28.60;;;24.70;;
51525;SDS011;37611;51.794;21.590;2022-11-11T01:27:25;35.80;;;26.40;;
51525;SDS011;37611;51.794;21.590;2022-11-11T01:31:27;38.30;;;33.30;;
51525;SDS011;37611;51.794;21.590;2022-11-11T01:35:28;40.10;;;34.00;;
51525;SDS011;37611;51.794;21.590;2022-11-11T01:39:31;37.80;;;33.20;;
51525;SDS011;37611;51.794;21.590;2022-11-11T01:43:32;44.50;;;37.00;;
51525;SDS011;37611;51.794;21.590;2022-11-11T01:47:34;44.30;;;37.30;;
51525;SDS011;37611;51.794;21.590;2022-11-11T01:56:05;36.80;;;32.00;;
51525;SDS011;37611;51.794;21.590;2022-11-11T02:00:11;37.80;;;30.30;;
51525;SDS011;37611;51.794;21.590;2022-11-11T02:04:15;43.70;;;32.00;;
51525;SDS011;37611;51.794;21.590;2022-11-11T02:08:38;47.70;;;32.50;;
51525;SDS011;37611;51.794;21.590;2022-11-11T02:12:40;46.10;;;31.20;;
51525;SDS011;37611;51.794;21.590;2022-11-11T02:17:04;75.10;;;35.40;;
51525;SDS011;37611;51.794;21.590;2022-11-11T02:21:10;47.90;;;36.40;;
51525;SDS011;37611;51.794;21.590;2022-11-11T02:25:18;43.60;;;34.30;;
51525;SDS011;37611;51.794;21.590;2022-11-11T02:29:23;50.00;;;37.20;;
51525;SDS011;37611;51.794;21.590;2022-11-11T02:33:25;45.20;;;33.20;;
51525;SDS011;37611;51.794;21.590;2022-11-11T02:37:26;40.20;;;32.90;;
51525;SDS011;37611;51.794;21.590;2022-11-11T02:41:28;41.00;;;33.80;;
51525;SDS011;37611;51.794;21.590;2022-11-11T02:50:10;45.20;;;35.60;;
51525;SDS011;37611;51.794;21.590;2022-11-11T02:54:12;45.40;;;34.40;;
51525;SDS011;37611;51.794;21.590;2022-11-11T02:58:14;40.20;;;30.80;;
51525;SDS011;37611;51.794;21.590;2022-11-11T03:02:16;41.60;;;28.50;;
51525;SDS011;37611;51.794;21.590;2022-11-11T03:06:18;43.40;;;29.90;;
51525;SDS011;37611;51.794;21.590;2022-11-11T03:10:20;42.90;;;31.70;;
51525;SDS011;37611;51.794;21.590;2022-11-11T03:14:21;45.60;;;31.70;;
51525;SDS011;37611;51.794;21.590;2022-11-11T03:18:23;37.70;;;29.40;;
51525;SDS011;37611;51.794;21.590;2022-11-11T03:22:25;40.60;;;28.10;;
51525;SDS011;37611;51.794;21.590;2022-11-11T03:26:27;37.40;;;27.40;;
51525;SDS011;37611;51.794;21.590;2022-11-11T03:30:29;37.40;;;28.30;;
51525;SDS011;37611;51.794;21.590;2022-11-11T03:34:30;30.70;;;26.30;;
51525;SDS011;37611;51.794;21.590;2022-11-11T03:38:32;28.30;;;23.10;;
51525;SDS011;37611;51.794;21.590;2022-11-11T03:42:34;30.10;;;24.50;;
51525;SDS011;37611;51.794;21.590;2022-11-11T03:46:35;29.40;;;24.10;;
51525;SDS011;37611;51.794;21.590;2022-11-11T03:50:37;29.70;;;23.40;;
51525;SDS011;37611;51.794;21.590;2022-11-11T03:54:39;27.20;;;22.90;;
51525;SDS011;37611;51.794;21.590;2022-11-11T03:58:41;21.60;;;18.20;;
51525;SDS011;37611;51.794;21.590;2022-11-11T04:02:43;23.90;;;19.10;;
51525;SDS011;37611;51.794;21.590;2022-11-11T04:07:03;19.50;;;17.30;;
51525;SDS011;37611;51.794;21.590;2022-11-11T04:11:40;30.20;;;21.70;;
51525;SDS011;37611;51.794;21.590;2022-11-11T04:15:44;30.20;;;21.90;;
51525;SDS011;37611;51.794;21.590;2022-11-11T04:20:04;31.70;;;23.10;;
51525;SDS011;37611;51.794;21.590;2022-11-11T04:24:26;29.20;;;20.80;;
51525;SDS011;37611;51.794;21.590;2022-11-11T04:28:47;25.40;;;20.60;;
51525;SDS011;37611;51.794;21.590;2022-11-11T04:33:07;20.70;;;17.90;;
51525;SDS011;37611;51.794;21.590;2022-11-11T04:37:09;21.20;;;17.20;;
51525;SDS011;37611;51.794;21.590;2022-11-11T04:41:11;24.00;;;19.70;;
51525;SDS011;37611;51.794;21.590;2022-11-11T04:45:13;21.70;;;18.10;;
51525;SDS011;37611;51.794;21.590;2022-11-11T04:49:34;22.40;;;17.60;;
51525;SDS011;37611;51.794;21.590;2022-11-11T04:53:35;23.60;;;15.70;;
51525;SDS011;37611;51.794;21.590;2022-11-11T04:57:38;18.60;;;14.50;;
51525;SDS011;37611;51.794;21.590;2022-11-11T05:01:41;18.40;;;14.50;;
51525;SDS011;37611;51.794;21.590;2022-11-11T05:06:02;18.70;;;15.80;;
51525;SDS011;37611;51.794;21.590;2022-11-11T05:10:23;21.80;;;15.70;;
51525;SDS011;37611;51.794;21.590;2022-11-11T05:14:25;22.40;;;15.90;;
51525;SDS011;37611;51.794;21.590;2022-11-11T05:18:45;24.60;;;19.60;;
51525;SDS011;37611;51.794;21.590;2022-11-11T05:23:06;24.30;;;17.30;;
51525;SDS011;37611;51.794;21.590;2022-11-11T05:27:08;19.50;;;17.00;;
51525;SDS011;37611;51.794;21.590;2022-11-11T05:31:10;21.90;;;17.60;;
51525;SDS011;37611;51.794;21.590;2022-11-11T05:35:12;22.70;;;17.40;;
51525;SDS011;37611;51.794;21.590;2022-11-11T05:39:14;23.40;;;19.70;;
51525;SDS011;37611;51.794;21.590;2022-11-11T05:43:16;27.10;;;21.00;;
51525;SDS011;37611;51.794;21.590;2022-11-11T05:47:18;27.90;;;22.80;;
51525;SDS011;37611;51.794;21.590;2022-11-11T05:51:20;25.20;;;20.80;;
51525;SDS011;37611;51.794;21.590;2022-11-11T05:55:28;21.70;;;19.00;;
51525;SDS011;37611;51.794;21.590;2022-11-11T05:59:30;25.70;;;19.50;;
51525;SDS011;37611;51.794;21.590;2022-11-11T06:03:31;26.50;;;21.50;;
51525;SDS011;37611;51.794;21.590;2022-11-11T06:07:37;28.00;;;21.20;;
51525;SDS011;37611;51.794;21.590;2022-11-11T06:11:40;25.80;;;22.50;;
51525;SDS011;37611;51.794;21.590;2022-11-11T06:15:41;27.20;;;19.50;;
51525;SDS011;37611;51.794;21.590;2022-11-11T06:19:43;26.20;;;19.70;;
51525;SDS011;37611;51.794;21.590;2022-11-11T06:23:45;23.60;;;19.50;;
51525;SDS011;37611;51.794;21.590;2022-11-11T06:27:47;29.40;;;24.60;;
51525;SDS011;37611;51.794;21.590;2022-11-11T06:31:48;35.70;;;27.30;;
51525;SDS011;37611;51.794;21.590;2022-11-11T06:35:50;32.20;;;27.30;;
51525;SDS011;37611;51.794;21.590;2022-11-11T06:39:52;44.20;;;39.30;;
51525;SDS011;37611;51.794;21.590;2022-11-11T06:43:54;38.70;;;33.40;;
51525;SDS011;37611;51.794;21.590;2022-11-11T06:47:55;35.70;;;27.10;;
51525;SDS011;37611;51.794;21.590;2022-11-11T06:51:57;22.00;;;18.00;;
51525;SDS011;37611;51.794;21.590;2022-11-11T06:55:59;21.90;;;17.60;;
51525;SDS011;37611;51.794;21.590;2022-11-11T07:00:02;27.10;;;22.00;;
51525;SDS011;37611;51.794;21.590;2022-11-11T07:04:05;28.10;;;19.20;;
51525;SDS011;37611;51.794;21.590;2022-11-11T07:08:08;22.10;;;16.10;;
51525;SDS011;37611;51.794;21.590;2022-11-11T07:12:12;24.90;;;15.40;;
51525;SDS011;37611;51.794;21.590;2022-11-11T07:16:14;18.20;;;15.40;;
51525;SDS011;37611;51.794;21.590;2022-11-11T07:20:16;22.00;;;16.80;;
51525;SDS011;37611;51.794;21.590;2022-11-11T07:24:18;22.60;;;16.80;;
51525;SDS011;37611;51.794;21.590;2022-11-11T07:28:20;21.70;;;16.70;;
51525;SDS011;37611;51.794;21.590;2022-11-11T07:32:22;24.80;;;18.30;;
51525;SDS011;37611;51.794;21.590;2022-11-11T07:36:24;25.20;;;15.50;;
51525;SDS011;37611;51.794;21.590;2022-11-11T07:40:25;18.50;;;15.90;;
51525;SDS011;37611;51.794;21.590;2022-11-11T07:44:27;21.60;;;15.00;;
51525;SDS011;37611;51.794;21.590;2022-11-11T07:48:29;18.90;;;15.20;;
51525;SDS011;37611;51.794;21.590;2022-11-11T07:52:31;19.30;;;13.40;;
51525;SDS011;37611;51.794;21.590;2022-11-11T07:56:33;20.60;;;14.00;;
51525;SDS011;37611;51.794;21.590;2022-11-11T08:00:35;21.80;;;13.90;;
51525;SDS011;37611;51.794;21.590;2022-11-11T08:04:37;25.20;;;16.20;;
51525;SDS011;37611;51.794;21.590;2022-11-11T08:08:39;20.90;;;16.00;;
51525;SDS011;37611;51.794;21.590;2022-11-11T08:12:40;21.60;;;17.00;;
51525;SDS011;37611;51.794;21.590;2022-11-11T08:17:01;19.40;;;15.60;;
51525;SDS011;37611;51.794;21.590;2022-11-11T08:21:03;21.70;;;17.00;;
51525;SDS011;37611;51.794;21.590;2022-11-11T08:25:06;23.90;;;18.40;;
51525;SDS011;37611;51.794;21.590;2022-11-11T08:29:10;21.30;;;17.00;;
51525;SDS011;37611;51.794;21.590;2022-11-11T08:33:12;24.30;;;16.60;;
51525;SDS011;37611;51.794;21.590;2022-11-11T08:37:14;19.90;;;15.30;;
51525;SDS011;37611;51.794;21.590;2022-11-11T08:41:16;17.30;;;14.80;;
51525;SDS011;37611;51.794;21.590;2022-11-11T08:45:18;22.10;;;15.70;;
51525;SDS011;37611;51.794;21.590;2022-11-11T08:49:20;23.10;;;16.90;;
51525;SDS011;37611;51.794;21.590;2022-11-11T08:53:21;56.20;;;38.60;;
51525;SDS011;37611;51.794;21.590;2022-11-11T08:57:24;18.10;;;13.70;;
51525;SDS011;37611;51.794;21.590;2022-11-11T09:01:25;19.00;;;14.10;;
51525;SDS011;37611;51.794;21.590;2022-11-11T09:05:27;19.20;;;13.40;;
51525;SDS011;37611;51.794;21.590;2022-11-11T09:09:29;21.40;;;14.60;;
51525;SDS011;37611;51.794;21.590;2022-11-11T09:13:31;24.60;;;15.50;;
51525;SDS011;37611;51.794;21.590;2022-11-11T09:17:33;22.40;;;16.70;;
51525;SDS011;37611;51.794;21.590;2022-11-11T09:21:34;23.10;;;15.20;;
51525;SDS011;37611;51.794;21.590;2022-11-11T09:25:36;22.80;;;15.00;;
51525;SDS011;37611;51.794;21.590;2022-11-11T09:29:38;20.20;;;13.50;;
51525;SDS011;37611;51.794;21.590;2022-11-11T09:33:40;19.40;;;14.50;;
51525;SDS011;37611;51.794;21.590;2022-11-11T09:37:42;21.90;;;13.80;;
51525;SDS011;37611;51.794;21.590;2022-11-11T09:50:17;17.70;;;13.90;;
51525;SDS011;37611;51.794;21.590;2022-11-11T09:59:08;15.40;;;10.00;;
51525;SDS011;37611;51.794;21.590;2022-11-11T10:03:20;19.10;;;10.70;;
51525;SDS011;37611;51.794;21.590;2022-11-11T10:07:25;17.10;;;10.80;;
51525;SDS011;37611;51.794;21.590;2022-11-11T10:12:02;21.50;;;11.80;;
51525;SDS011;37611;51.794;21.590;2022-11-11T10:20:46;18.80;;;11.10;;
51525;SDS011;37611;51.794;21.590;2022-11-11T10:24:59;18.40;;;10.40;;
51525;SDS011;37611;51.794;21.590;2022-11-11T10:29:10;17.10;;;10.50;;
51525;SDS011;37611;51.794;21.590;2022-11-11T10:33:17;14.70;;;10.80;;
51525;SDS011;37611;51.794;21.590;2022-11-11T10:37:29;19.00;;;11.00;;
51525;SDS011;37611;51.794;21.590;2022-11-11T10:41:45;18.20;;;10.70;;
51525;SDS011;37611;51.794;21.590;2022-11-11T10:50:26;20.60;;;11.70;;
51525;SDS011;37611;51.794;21.590;2022-11-11T10:54:58;21.50;;;12.30;;
51525;SDS011;37611;51.794;21.590;2022-11-11T11:07:18;20.90;;;11.40;;
51525;SDS011;37611;51.794;21.590;2022-11-11T11:15:53;18.40;;;11.10;;
51525;SDS011;37611;51.794;21.590;2022-11-11T11:20:11;14.90;;;11.00;;
51525;SDS011;37611;51.794;21.590;2022-11-11T11:24:21;19.90;;;13.60;;
51525;SDS011;37611;51.794;21.590;2022-11-11T11:28:26;21.80;;;15.40;;
51525;SDS011;37611;51.794;21.590;2022-11-11T11:32:28;32.60;;;20.20;;
51525;SDS011;37611;51.794;21.590;2022-11-11T11:36:31;33.60;;;21.20;;
51525;SDS011;37611;51.794;21.590;2022-11-11T11:40:52;21.00;;;14.00;;
51525;SDS011;37611;51.794;21.590;2022-11-11T12:07:50;19.50;;;11.30;;
51525;SDS011;37611;51.794;21.590;2022-11-11T12:42:36;15.80;;;8.30;;
51525;SDS011;37611;51.794;21.590;2022-11-11T13:12:23;15.80;;;9.10;;
51525;SDS011;37611;51.794;21.590;2022-11-11T13:16:30;57.00;;;27.20;;
51525;SDS011;37611;51.794;21.590;2022-11-11T13:24:44;19.50;;;13.70;;
51525;SDS011;37611;51.794;21.590;2022-11-11T13:28:46;16.00;;;11.00;;
51525;SDS011;37611;51.794;21.590;2022-11-11T13:32:52;15.50;;;8.90;;
51525;SDS011;37611;51.794;21.590;2022-11-11T13:37:02;12.10;;;7.80;;
51525;SDS011;37611;51.794;21.590;2022-11-11T13:41:06;14.90;;;10.10;;
51525;SDS011;37611;51.794;21.590;2022-11-11T13:45:14;18.40;;;11.50;;
51525;SDS011;37611;51.794;21.590;2022-11-11T13:49:40;16.90;;;9.50;;
51525;SDS011;37611;51.794;21.590;2022-11-11T13:53:51;14.00;;;8.10;;
51525;SDS011;37611;51.794;21.590;2022-11-11T13:57:53;15.80;;;9.40;;
51525;SDS011;37611;51.794;21.590;2022-11-11T14:18:37;20.60;;;12.00;;
51525;SDS011;37611;51.794;21.590;2022-11-11T14:22:41;16.00;;;10.80;;
51525;SDS011;37611;51.794;21.590;2022-11-11T14:26:43;28.60;;;19.10;;
51525;SDS011;37611;51.794;21.590;2022-11-11T14:35:28;15.60;;;10.90;;
51525;SDS011;37611;51.794;21.590;2022-11-11T14:39:44;16.90;;;10.40;;
51525;SDS011;37611;51.794;21.590;2022-11-11T14:43:52;20.00;;;10.90;;
51525;SDS011;37611;51.794;21.590;2022-11-11T14:47:53;16.60;;;12.80;;
51525;SDS011;37611;51.794;21.590;2022-11-11T14:51:57;15.60;;;9.10;;
51525;SDS011;37611;51.794;21.590;2022-11-11T14:55:59;14.70;;;10.40;;
51525;SDS011;37611;51.794;21.590;2022-11-11T15:00:03;17.20;;;11.90;;
51525;SDS011;37611;51.794;21.590;2022-11-11T15:04:12;17.20;;;9.60;;
51525;SDS011;37611;51.794;21.590;2022-11-11T15:13:26;14.50;;;9.70;;
51525;SDS011;37611;51.794;21.590;2022-11-11T15:21:39;18.10;;;11.00;;
51525;SDS011;37611;51.794;21.590;2022-11-11T15:25:54;18.50;;;10.10;;
51525;SDS011;37611;51.794;21.590;2022-11-11T15:30:04;21.00;;;12.30;;
51525;SDS011;37611;51.794;21.590;2022-11-11T15:38:33;16.60;;;10.90;;
51525;SDS011;37611;51.794;21.590;2022-11-11T15:42:39;15.70;;;11.80;;
51525;SDS011;37611;51.794;21.590;2022-11-11T15:46:47;16.80;;;11.30;;
51525;SDS011;37611;51.794;21.590;2022-11-11T15:50:50;21.70;;;19.50;;
51525;SDS011;37611;51.794;21.590;2022-11-11T15:54:52;14.20;;;10.10;;
51525;SDS011;37611;51.794;21.590;2022-11-11T15:58:55;17.20;;;11.30;;
51525;SDS011;37611;51.794;21.590;2022-11-11T16:02:58;29.80;;;26.10;;
51525;SDS011;37611;51.794;21.590;2022-11-11T16:06:59;40.40;;;21.40;;
51525;SDS011;37611;51.794;21.590;2022-11-11T16:11:01;32.90;;;29.10;;
51525;SDS011;37611;51.794;21.590;2022-11-11T16:15:04;23.80;;;16.80;;
51525;SDS011;37611;51.794;21.590;2022-11-11T16:19:26;21.60;;;9.80;;
51525;SDS011;37611;51.794;21.590;2022-11-11T16:23:37;15.40;;;10.50;;
51525;SDS011;37611;51.794;21.590;2022-11-11T16:27:40;16.30;;;10.30;;
51525;SDS011;37611;51.794;21.590;2022-11-11T16:31:43;59.90;;;36.50;;
51525;SDS011;37611;51.794;21.590;2022-11-11T16:35:45;46.50;;;30.80;;
51525;SDS011;37611;51.794;21.590;2022-11-11T16:39:47;28.10;;;18.10;;
51525;SDS011;37611;51.794;21.590;2022-11-11T16:43:49;99.00;;;59.60;;
51525;SDS011;37611;51.794;21.590;2022-11-11T16:47:52;21.20;;;12.30;;
51525;SDS011;37611;51.794;21.590;2022-11-11T16:51:54;29.00;;;21.50;;
51525;SDS011;37611;51.794;21.590;2022-11-11T16:55:56;46.20;;;36.30;;
51525;SDS011;37611;51.794;21.590;2022-11-11T17:00:02;19.30;;;13.70;;
51525;SDS011;37611;51.794;21.590;2022-11-11T17:04:05;22.90;;;17.30;;
51525;SDS011;37611;51.794;21.590;2022-11-11T17:08:26;28.70;;;19.50;;
51525;SDS011;37611;51.794;21.590;2022-11-11T17:12:42;23.10;;;14.80;;
51525;SDS011;37611;51.794;21.590;2022-11-11T17:16:44;27.60;;;20.90;;
51525;SDS011;37611;51.794;21.590;2022-11-11T17:20:46;24.40;;;18.90;;
51525;SDS011;37611;51.794;21.590;2022-11-11T17:24:48;59.30;;;46.60;;
51525;SDS011;37611;51.794;21.590;2022-11-11T17:28:50;41.60;;;30.30;;
51525;SDS011;37611;51.794;21.590;2022-11-11T17:32:52;40.30;;;36.20;;
51525;SDS011;37611;51.794;21.590;2022-11-11T17:36:54;19.40;;;16.00;;
51525;SDS011;37611;51.794;21.590;2022-11-11T17:40:56;19.00;;;13.90;;
51525;SDS011;37611;51.794;21.590;2022-11-11T17:44:57;19.60;;;11.60;;
51525;SDS011;37611;51.794;21.590;2022-11-11T17:49:00;15.50;;;10.30;;
51525;SDS011;37611;51.794;21.590;2022-11-11T17:53:01;39.70;;;35.60;;
51525;SDS011;37611;51.794;21.590;2022-11-11T17:57:04;17.40;;;11.10;;
51525;SDS011;37611;51.794;21.590;2022-11-11T18:01:07;20.40;;;13.90;;
51525;SDS011;37611;51.794;21.590;2022-11-11T18:05:10;17.50;;;11.90;;
51525;SDS011;37611;51.794;21.590;2022-11-11T18:09:14;15.90;;;9.80;;
51525;SDS011;37611;51.794;21.590;2022-11-11T18:13:16;18.30;;;10.50;;
51525;SDS011;37611;51.794;21.590;2022-11-11T18:17:17;15.70;;;10.40;;
51525;SDS011;37611;51.794;21.590;2022-11-11T18:21:19;17.70;;;10.90;;
51525;SDS011;37611;51.794;21.590;2022-11-11T18:25:21;16.70;;;11.00;;
51525;SDS011;37611;51.794;21.590;2022-11-11T18:29:23;20.40;;;11.30;;
51525;SDS011;37611;51.794;21.590;2022-11-11T18:33:26;20.10;;;11.20;;
51525;SDS011;37611;51.794;21.590;2022-11-11T18:37:27;15.70;;;10.70;;
51525;SDS011;37611;51.794;21.590;2022-11-11T18:41:29;19.70;;;10.30;;
51525;SDS011;37611;51.794;21.590;2022-11-11T18:45:34;14.80;;;10.30;;
51525;SDS011;37611;51.794;21.590;2022-11-11T18:49:36;45.50;;;36.60;;
51525;SDS011;37611;51.794;21.590;2022-11-11T18:53:38;25.50;;;18.90;;
51525;SDS011;37611;51.794;21.590;2022-11-11T18:57:41;23.60;;;17.40;;
51525;SDS011;37611;51.794;21.590;2022-11-11T19:01:42;21.10;;;14.10;;
51525;SDS011;37611;51.794;21.590;2022-11-11T19:05:45;18.40;;;14.10;;
51525;SDS011;37611;51.794;21.590;2022-11-11T19:09:46;17.20;;;11.70;;
51525;SDS011;37611;51.794;21.590;2022-11-11T19:13:48;15.50;;;11.80;;
51525;SDS011;37611;51.794;21.590;2022-11-11T19:17:50;18.20;;;11.40;;
51525;SDS011;37611;51.794;21.590;2022-11-11T19:21:52;17.90;;;13.10;;
51525;SDS011;37611;51.794;21.590;2022-11-11T19:25:57;15.90;;;10.10;;
51525;SDS011;37611;51.794;21.590;2022-11-11T19:29:59;17.90;;;9.80;;
51525;SDS011;37611;51.794;21.590;2022-11-11T19:34:01;15.90;;;10.50;;
51525;SDS011;37611;51.794;21.590;2022-11-11T19:38:03;14.20;;;11.50;;
51525;SDS011;37611;51.794;21.590;2022-11-11T19:42:04;14.80;;;11.20;;
51525;SDS011;37611;51.794;21.590;2022-11-11T19:46:08;18.30;;;13.00;;
51525;SDS011;37611;51.794;21.590;2022-11-11T19:50:11;16.00;;;12.90;;
51525;SDS011;37611;51.794;21.590;2022-11-11T19:54:13;18.00;;;13.40;;
51525;SDS011;37611;51.794;21.590;2022-11-11T19:58:16;13.30;;;10.50;;
51525;SDS011;37611;51.794;21.590;2022-11-11T20:02:18;15.60;;;11.90;;
51525;SDS011;37611;51.794;21.590;2022-11-11T20:10:36;15.00;;;11.10;;
51525;SDS011;37611;51.794;21.590;2022-11-11T20:14:47;16.10;;;10.30;;
51525;SDS011;37611;51.794;21.590;2022-11-11T20:18:56;16.00;;;10.60;;
51525;SDS011;37611;51.794;21.590;2022-11-11T20:23:02;15.70;;;10.00;;
51525;SDS011;37611;51.794;21.590;2022-11-11T20:27:06;14.10;;;9.50;;
51525;SDS011;37611;51.794;21.590;2022-11-11T20:31:09;17.60;;;10.60;;
51525;SDS011;37611;51.794;21.590;2022-11-11T20:35:19;17.20;;;12.30;;
51525;SDS011;37611;51.794;21.590;2022-11-11T20:39:21;19.30;;;13.40;;
51525;SDS011;37611;51.794;21.590;2022-11-11T20:43:23;15.70;;;10.70;;
51525;SDS011;37611;51.794;21.590;2022-11-11T20:47:24;16.90;;;10.90;;
51525;SDS011;37611;51.794;21.590;2022-11-11T20:51:26;18.90;;;10.40;;
51525;SDS011;37611;51.794;21.590;2022-11-11T20:55:28;14.30;;;10.30;;
51525;SDS011;37611;51.794;21.590;2022-11-11T20:59:30;16.10;;;10.60;;
51525;SDS011;37611;51.794;21.590;2022-11-11T21:03:31;16.70;;;11.40;;
51525;SDS011;37611;51.794;21.590;2022-11-11T21:07:34;14.20;;;11.00;;
51525;SDS011;37611;51.794;21.590;2022-11-11T21:11:36;15.70;;;12.10;;
51525;SDS011;37611;51.794;21.590;2022-11-11T21:15:38;17.00;;;12.00;;
51525;SDS011;37611;51.794;21.590;2022-11-11T21:19:40;14.70;;;11.90;;
51525;SDS011;37611;51.794;21.590;2022-11-11T21:23:42;13.40;;;11.70;;
51525;SDS011;37611;51.794;21.590;2022-11-11T21:27:43;18.40;;;11.10;;
51525;SDS011;37611;51.794;21.590;2022-11-11T21:31:45;14.00;;;12.20;;
51525;SDS011;37611;51.794;21.590;2022-11-11T21:35:47;15.10;;;10.90;;
51525;SDS011;37611;51.794;21.590;2022-11-11T21:39:49;15.30;;;10.90;;
51525;SDS011;37611;51.794;21.590;2022-11-11T21:43:51;15.90;;;12.00;;
51525;SDS011;37611;51.794;21.590;2022-11-11T21:47:56;18.00;;;12.30;;
51525;SDS011;37611;51.794;21.590;2022-11-11T21:51:58;17.20;;;11.90;;
51525;SDS011;37611;51.794;21.590;2022-11-11T21:56:01;17.10;;;12.40;;
51525;SDS011;37611;51.794;21.590;2022-11-11T22:00:05;15.70;;;11.10;;
51525;SDS011;37611;51.794;21.590;2022-11-11T22:04:09;13.70;;;10.30;;
51525;SDS011;37611;51.794;21.590;2022-11-11T22:08:12;13.60;;;11.20;;
51525;SDS011;37611;51.794;21.590;2022-11-11T22:12:14;13.50;;;11.10;;
51525;SDS011;37611;51.794;21.590;2022-11-11T22:16:17;14.00;;;10.60;;
51525;SDS011;37611;51.794;21.590;2022-11-11T22:20:20;15.80;;;10.10;;
51525;SDS011;37611;51.794;21.590;2022-11-11T22:24:22;15.40;;;12.10;;
51525;SDS011;37611;51.794;21.590;2022-11-11T22:28:24;16.20;;;11.50;;
51525;SDS011;37611;51.794;21.590;2022-11-11T22:32:26;14.70;;;11.00;;
51525;SDS011;37611;51.794;21.590;2022-11-11T22:36:28;15.10;;;11.10;;
51525;SDS011;37611;51.794;21.590;2022-11-11T22:40:31;13.90;;;11.30;;
51525;SDS011;37611;51.794;21.590;2022-11-11T22:44:33;15.10;;;11.70;;
51525;SDS011;37611;51.794;21.590;2022-11-11T22:48:38;13.90;;;11.20;;
51525;SDS011;37611;51.794;21.590;2022-11-11T22:52:41;17.90;;;11.40;;
51525;SDS011;37611;51.794;21.590;2022-11-11T22:56:43;18.60;;;11.30;;
51525;SDS011;37611;51.794;21.590;2022-11-11T23:00:44;16.80;;;12.00;;
51525;SDS011;37611;51.794;21.590;2022-11-11T23:04:46;16.20;;;12.10;;
51525;SDS011;37611;51.794;21.590;2022-11-11T23:08:48;16.00;;;11.20;;
51525;SDS011;37611;51.794;21.590;2022-11-11T23:12:50;15.70;;;12.40;;
51525;SDS011;37611;51.794;21.590;2022-11-11T23:16:52;17.40;;;12.00;;
51525;SDS011;37611;51.794;21.590;2022-11-11T23:21:07;21.20;;;12.30;;
51525;SDS011;37611;51.794;21.590;2022-11-11T23:25:11;19.70;;;14.00;;
51525;SDS011;37611;51.794;21.590;2022-11-11T23:29:12;15.70;;;12.80;;
51525;SDS011;37611;51.794;21.590;2022-11-11T23:33:14;19.80;;;13.90;;
51525;SDS011;37611;51.794;21.590;2022-11-11T23:37:16;14.70;;;12.70;;
51525;SDS011;37611;51.794;21.590;2022-11-11T23:41:18;17.20;;;13.20;;
51525;SDS011;37611;51.794;21.590;2022-11-11T23:45:20;15.30;;;12.70;;
51525;SDS011;37611;51.794;21.590;2022-11-11T23:49:22;17.80;;;13.10;;
51525;SDS011;37611;51.794;21.590;2022-11-11T23:53:24;20.60;;;13.60;;
51525;SDS011;37611;51.794;21.590;2022-11-11T23:57:26;18.20;;;13.30;;
